PWSweather.com
Personal Weather Stations
Station Observations
VACLIF1
Little Rocky Run, Clifton, VA 20124

Little Rocky RunClifton, VA 20124

Lat: 38.81855, Lon: -77.419867

Elevation: 302

Station Type: Ambient WS-2080A

Latest ConditionsUpdated 6:30:01 PM EDT Monday, Oct 15, 2018
Currently Today's Max Today's Min Today's Average
Temperature 69.0°F20.6°C 69.0°F20.6°C 54.3°F12.4°C 60.2°F15.7°C
Dew Point 65.9°F18.8°C 65.9°F18.8°C 52.5°F11.4°C 58.3°F14.6°C
Winds 1.0 mph ESE1.6 kmh ESE 3.0 mph -4.8 kmh - - 1.1 mph 1.8 kmh
Wind Gusts 3.0 mph4.8 kmh 10.0 mph16.1 kmh - -
Humidity 90% 97% 85% 94%
Pressure 29.97 in1014.9 mb 30.21 in1023.0 mb 29.97 in1014.9 mb -
Precipitation - 0.15 in3.8 mm - -
Hour Temp Dew Point Humidity Winds Wind Gusts Pressure Precip Precip Rate Daily Precip Total
06:30 PM 69.0°F20.6°C 65.9°F18.8°C 90% 1.0 mph ESE1.6 kmh ESE 3.0 mph4.8 kmh 29.97 in1014.9 mb 0.00 in0.0 mm 0.00 in0.0 mm 0.15 in3.8 mm
06:20 PM 68.5°F20.3°C 65.4°F18.6°C 90% 1.0 mph SE1.6 kmh SE 3.0 mph4.8 kmh 29.97 in1014.9 mb 0.00 in0.0 mm 0.00 in0.0 mm 0.15 in3.8 mm
06:10 PM 68.3°F20.2°C 65.6°F18.7°C 91% Calm Calm 3.0 mph4.8 kmh 29.97 in1014.9 mb 0.00 in0.0 mm 0.00 in0.0 mm 0.15 in3.8 mm
06:00 PM 67.7°F19.8°C 65.3°F18.5°C 92% 1.0 mph SE1.6 kmh SE 4.0 mph6.4 kmh 29.98 in1015.2 mb 0.00 in0.0 mm 0.00 in0.0 mm 0.15 in3.8 mm
05:50 PM 67.2°F19.6°C 65.1°F18.4°C 93% 1.0 mph SE1.6 kmh SE 2.0 mph3.2 kmh 29.97 in1014.9 mb 0.00 in0.0 mm 0.00 in0.0 mm 0.15 in3.8 mm
05:40 PM 66.8°F19.3°C 65.0°F18.3°C 94% Calm Calm 1.0 mph1.6 kmh 29.99 in1015.6 mb 0.00 in0.0 mm 0.00 in0.0 mm 0.15 in3.8 mm
05:30 PM 66.9°F19.4°C 64.8°F18.2°C 93% Calm Calm 1.0 mph1.6 kmh 29.99 in1015.6 mb 0.00 in0.0 mm 0.00 in0.0 mm 0.15 in3.8 mm
05:20 PM 67.3°F19.6°C 64.9°F18.3°C 92% 1.0 mph SE1.6 kmh SE 3.0 mph4.8 kmh 29.97 in1014.9 mb 0.00 in0.0 mm 0.00 in0.0 mm 0.15 in3.8 mm
05:10 PM 67.1°F19.5°C 64.7°F18.2°C 92% Calm Calm 2.0 mph3.2 kmh 29.98 in1015.2 mb 0.00 in0.0 mm 0.00 in0.0 mm 0.15 in3.8 mm
05:00 PM 67.2°F19.6°C 64.8°F18.2°C 92% Calm Calm 3.0 mph4.8 kmh 30.00 in1015.9 mb 0.00 in0.0 mm 0.00 in0.0 mm 0.15 in3.8 mm
04:50 PM 67.6°F19.8°C 64.6°F18.1°C 90% Calm Calm 3.0 mph4.8 kmh 29.99 in1015.6 mb 0.00 in0.0 mm 0.00 in0.0 mm 0.15 in3.8 mm
04:40 PM 67.2°F19.6°C 64.8°F18.2°C 92% 1.0 mph SE1.6 kmh SE 3.0 mph4.8 kmh 30.00 in1015.9 mb 0.00 in0.0 mm 0.00 in0.0 mm 0.15 in3.8 mm
04:30 PM 67.2°F19.6°C 64.8°F18.2°C 92% 1.0 mph SE1.6 kmh SE 4.0 mph6.4 kmh 30.00 in1015.9 mb 0.00 in0.0 mm 0.00 in0.0 mm 0.15 in3.8 mm
04:20 PM 66.8°F19.3°C 64.7°F18.2°C 93% 1.0 mph SSE1.6 kmh SSE 4.0 mph6.4 kmh 30.00 in1015.9 mb 0.00 in0.0 mm 0.00 in0.0 mm 0.15 in3.8 mm
04:10 PM 66.2°F19.0°C 64.4°F18.0°C 94% 1.0 mph SE1.6 kmh SE 3.0 mph4.8 kmh 30.00 in1015.9 mb 0.00 in0.0 mm 0.00 in0.0 mm 0.15 in3.8 mm
04:00 PM 65.8°F18.8°C 64.0°F17.8°C 94% Calm Calm 3.0 mph4.8 kmh 30.00 in1015.9 mb 0.00 in0.0 mm 0.00 in0.0 mm 0.15 in3.8 mm
03:50 PM 65.1°F18.4°C 63.6°F17.6°C 95% Calm Calm 2.0 mph3.2 kmh 30.01 in1016.3 mb 0.00 in0.0 mm 0.00 in0.0 mm 0.15 in3.8 mm
03:40 PM 64.7°F18.2°C 63.2°F17.3°C 95% Calm Calm 1.0 mph1.6 kmh 30.02 in1016.6 mb 0.00 in0.0 mm 0.00 in0.0 mm 0.15 in3.8 mm
03:30 PM 64.5°F18.1°C 62.7°F17.1°C 94% Calm Calm 1.0 mph1.6 kmh 30.02 in1016.6 mb 0.00 in0.0 mm 0.00 in0.0 mm 0.15 in3.8 mm
03:20 PM 64.5°F18.1°C 62.7°F17.1°C 94% Calm Calm 1.0 mph1.6 kmh 30.02 in1016.6 mb 0.00 in0.0 mm 0.00 in0.0 mm 0.15 in3.8 mm
03:10 PM 64.5°F18.1°C 62.4°F16.9°C 93% 1.0 mph E1.6 kmh E 2.0 mph3.2 kmh 30.02 in1016.6 mb 0.00 in0.0 mm 0.00 in0.0 mm 0.15 in3.8 mm
03:00 PM 64.5°F18.1°C 62.4°F16.9°C 93% 1.0 mph S1.6 kmh S 4.0 mph6.4 kmh 30.03 in1016.9 mb 0.00 in0.0 mm 0.00 in0.0 mm 0.15 in3.8 mm
02:50 PM 64.2°F17.9°C 62.4°F16.9°C 94% Calm Calm 1.0 mph1.6 kmh 30.03 in1016.9 mb 0.00 in0.0 mm 0.00 in0.0 mm 0.15 in3.8 mm
02:40 PM 64.2°F17.9°C 62.4°F16.9°C 94% Calm Calm 1.0 mph1.6 kmh 30.04 in1017.3 mb 0.00 in0.0 mm 0.00 in0.0 mm 0.15 in3.8 mm
02:30 PM 64.1°F17.8°C 62.0°F16.7°C 93% Calm Calm 4.0 mph6.4 kmh 30.03 in1016.9 mb 0.00 in0.0 mm 0.00 in0.0 mm 0.15 in3.8 mm
02:20 PM 63.8°F17.7°C 62.0°F16.7°C 94% Calm Calm 2.0 mph3.2 kmh 30.04 in1017.3 mb 0.01 in0.3 mm 0.00 in0.0 mm 0.15 in3.8 mm
02:10 PM 63.7°F17.6°C 61.9°F16.6°C 94% 1.0 mph SSE1.6 kmh SSE 3.0 mph4.8 kmh 30.04 in1017.3 mb 0.01 in0.3 mm 0.00 in0.0 mm 0.15 in3.8 mm
02:00 PM 63.7°F17.6°C 61.6°F16.4°C 93% 1.0 mph SSE1.6 kmh SSE 3.0 mph4.8 kmh 30.05 in1017.6 mb 0.01 in0.3 mm 0.00 in0.0 mm 0.15 in3.8 mm
01:50 PM 63.9°F17.7°C 61.8°F16.6°C 93% 1.0 mph SSE1.6 kmh SSE 4.0 mph6.4 kmh 30.05 in1017.6 mb 0.01 in0.3 mm 0.00 in0.0 mm 0.15 in3.8 mm
01:40 PM 64.0°F17.8°C 61.9°F16.6°C 93% 1.0 mph SE1.6 kmh SE 4.0 mph6.4 kmh 30.06 in1017.9 mb 0.01 in0.3 mm 0.00 in0.0 mm 0.15 in3.8 mm
01:30 PM 63.9°F17.7°C 61.8°F16.6°C 93% 1.0 mph S1.6 kmh S 5.0 mph8.0 kmh 30.06 in1017.9 mb 0.01 in0.3 mm 0.06 in1.5 mm 0.15 in3.8 mm
01:20 PM 64.1°F17.8°C 61.7°F16.5°C 92% 1.0 mph SSE1.6 kmh SSE 5.0 mph8.0 kmh 30.07 in1018.3 mb 0.00 in0.0 mm 0.00 in0.0 mm 0.14 in3.6 mm
01:10 PM 64.3°F17.9°C 61.9°F16.6°C 92% 1.0 mph SSE1.6 kmh SSE 4.0 mph6.4 kmh 30.07 in1018.3 mb 0.00 in0.0 mm 0.00 in0.0 mm 0.14 in3.6 mm
01:00 PM 64.7°F18.2°C 61.4°F16.3°C 89% 2.0 mph SE3.2 kmh SE 7.0 mph11.3 kmh 30.07 in1018.3 mb 0.00 in0.0 mm 0.00 in0.0 mm 0.14 in3.6 mm
12:50 PM 65.7°F18.7°C 62.0°F16.7°C 88% 2.0 mph SSE3.2 kmh SSE 6.0 mph9.7 kmh 30.07 in1018.3 mb 0.00 in0.0 mm 0.00 in0.0 mm 0.14 in3.6 mm
12:40 PM 65.9°F18.8°C 61.9°F16.6°C 87% 2.0 mph SSE3.2 kmh SSE 5.0 mph8.0 kmh 30.07 in1018.3 mb 0.00 in0.0 mm 0.00 in0.0 mm 0.14 in3.6 mm
12:30 PM 65.9°F18.8°C 61.9°F16.6°C 87% 2.0 mph SSE3.2 kmh SSE 8.0 mph12.9 kmh 30.07 in1018.3 mb 0.00 in0.0 mm 0.00 in0.0 mm 0.14 in3.6 mm
12:20 PM 66.3°F19.1°C 62.0°F16.7°C 86% 2.0 mph SSE3.2 kmh SSE 9.0 mph14.5 kmh 30.07 in1018.3 mb 0.00 in0.0 mm 0.00 in0.0 mm 0.14 in3.6 mm
12:10 PM 67.1°F19.5°C 62.4°F16.9°C 85% 3.0 mph SE4.8 kmh SE 8.0 mph12.9 kmh 30.08 in1018.6 mb 0.00 in0.0 mm 0.00 in0.0 mm 0.14 in3.6 mm
12:00 PM 67.9°F19.9°C 63.9°F17.7°C 87% 3.0 mph SE4.8 kmh SE 8.0 mph12.9 kmh 30.08 in1018.6 mb 0.00 in0.0 mm 0.00 in0.0 mm 0.14 in3.6 mm
11:50 AM 67.4°F19.7°C 64.0°F17.8°C 89% 2.0 mph SSE3.2 kmh SSE 8.0 mph12.9 kmh 30.09 in1019.0 mb 0.00 in0.0 mm 0.00 in0.0 mm 0.14 in3.6 mm
11:40 AM 66.0°F18.9°C 62.3°F16.8°C 88% 2.0 mph SSE3.2 kmh SSE 7.0 mph11.3 kmh 30.09 in1019.0 mb 0.00 in0.0 mm 0.00 in0.0 mm 0.14 in3.6 mm
11:30 AM 65.4°F18.6°C 62.4°F16.9°C 90% 2.0 mph SSE3.2 kmh SSE 6.0 mph9.7 kmh 30.09 in1019.0 mb 0.00 in0.0 mm 0.00 in0.0 mm 0.14 in3.6 mm
11:20 AM 64.6°F18.1°C 61.9°F16.6°C 91% 2.0 mph SSE3.2 kmh SSE 8.0 mph12.9 kmh 30.09 in1019.0 mb 0.00 in0.0 mm 0.00 in0.0 mm 0.14 in3.6 mm
11:10 AM 64.2°F17.9°C 61.5°F16.4°C 91% 2.0 mph SE3.2 kmh SE 7.0 mph11.3 kmh 30.09 in1019.0 mb 0.00 in0.0 mm 0.00 in0.0 mm 0.14 in3.6 mm
11:00 AM 63.8°F17.7°C 61.7°F16.5°C 93% 2.0 mph SSE3.2 kmh SSE 8.0 mph12.9 kmh 30.09 in1019.0 mb 0.00 in0.0 mm 0.00 in0.0 mm 0.14 in3.6 mm
10:50 AM 62.9°F17.2°C 60.8°F16.0°C 93% 2.0 mph SSE3.2 kmh SSE 6.0 mph9.7 kmh 30.10 in1019.3 mb 0.00 in0.0 mm 0.00 in0.0 mm 0.14 in3.6 mm
10:40 AM 62.4°F16.9°C 60.7°F15.9°C 94% 2.0 mph SE3.2 kmh SE 10.0 mph16.1 kmh 30.11 in1019.6 mb 0.00 in0.0 mm 0.00 in0.0 mm 0.14 in3.6 mm
10:30 AM 62.0°F16.7°C 60.3°F15.7°C 94% 2.0 mph SSE3.2 kmh SSE 9.0 mph14.5 kmh 30.11 in1019.6 mb 0.00 in0.0 mm 0.00 in0.0 mm 0.14 in3.6 mm
10:20 AM 61.8°F16.6°C 60.4°F15.8°C 95% 2.0 mph SSE3.2 kmh SSE 10.0 mph16.1 kmh 30.11 in1019.6 mb 0.00 in0.0 mm 0.00 in0.0 mm 0.14 in3.6 mm
10:10 AM 61.2°F16.2°C 59.8°F15.4°C 95% 2.0 mph SSE3.2 kmh SSE 8.0 mph12.9 kmh 30.11 in1019.6 mb 0.00 in0.0 mm 0.00 in0.0 mm 0.14 in3.6 mm
10:00 AM 60.9°F16.1°C 59.5°F15.3°C 95% 2.0 mph S3.2 kmh S 8.0 mph12.9 kmh 30.11 in1019.6 mb 0.00 in0.0 mm 0.00 in0.0 mm 0.14 in3.6 mm
09:50 AM 60.7°F15.9°C 59.6°F15.3°C 96% 1.0 mph SSE1.6 kmh SSE 4.0 mph6.4 kmh 30.10 in1019.3 mb 0.00 in0.0 mm 0.00 in0.0 mm 0.14 in3.6 mm
09:40 AM 60.2°F15.7°C 59.1°F15.1°C 96% 2.0 mph SE3.2 kmh SE 5.0 mph8.0 kmh 30.11 in1019.6 mb 0.00 in0.0 mm 0.00 in0.0 mm 0.14 in3.6 mm
09:30 AM 60.2°F15.7°C 58.8°F14.9°C 95% 2.0 mph SE3.2 kmh SE 4.0 mph6.4 kmh 30.12 in1020.0 mb 0.00 in0.0 mm 0.00 in0.0 mm 0.14 in3.6 mm
09:20 AM 60.2°F15.7°C 59.1°F15.1°C 96% 2.0 mph SSE3.2 kmh SSE 4.0 mph6.4 kmh 30.11 in1019.6 mb 0.01 in0.3 mm 0.00 in0.0 mm 0.14 in3.6 mm
09:10 AM 59.2°F15.1°C 58.3°F14.6°C 97% 2.0 mph SE3.2 kmh SE 5.0 mph8.0 kmh 30.11 in1019.6 mb 0.02 in0.5 mm 0.00 in0.0 mm 0.14 in3.6 mm
09:00 AM 58.8°F14.9°C 58.0°F14.4°C 97% 2.0 mph SE3.2 kmh SE 5.0 mph8.0 kmh 30.12 in1020.0 mb 0.02 in0.5 mm 0.00 in0.0 mm 0.14 in3.6 mm
08:50 AM 58.5°F14.7°C 57.7°F14.3°C 97% 1.0 mph SE1.6 kmh SE 5.0 mph8.0 kmh 30.13 in1020.3 mb 0.03 in0.8 mm 0.00 in0.0 mm 0.14 in3.6 mm
08:40 AM 58.0°F14.4°C 57.2°F14.0°C 97% 2.0 mph SSE3.2 kmh SSE 5.0 mph8.0 kmh 30.12 in1020.0 mb 0.04 in1.0 mm 0.00 in0.0 mm 0.14 in3.6 mm
08:30 AM 57.7°F14.3°C 56.9°F13.8°C 97% 1.0 mph SE1.6 kmh SE 4.0 mph6.4 kmh 30.12 in1020.0 mb 0.05 in1.3 mm 0.06 in1.5 mm 0.14 in3.6 mm
08:20 AM 57.4°F14.1°C 56.6°F13.7°C 97% 2.0 mph SE3.2 kmh SE 8.0 mph12.9 kmh 30.12 in1020.0 mb 0.04 in1.0 mm 0.00 in0.0 mm 0.13 in3.3 mm
08:10 AM 57.1°F13.9°C 56.3°F13.5°C 97% 1.0 mph S1.6 kmh S 4.0 mph6.4 kmh 30.12 in1020.0 mb 0.04 in1.0 mm 0.00 in0.0 mm 0.12 in3.0 mm
08:00 AM 56.8°F13.8°C 56.0°F13.3°C 97% 1.0 mph SE1.6 kmh SE 5.0 mph8.0 kmh 30.12 in1020.0 mb 0.04 in1.0 mm 0.01 in0.3 mm 0.12 in3.0 mm
07:50 AM 56.6°F13.7°C 55.8°F13.2°C 97% 2.0 mph SE3.2 kmh SE 4.0 mph6.4 kmh 30.12 in1020.0 mb 0.03 in0.8 mm 0.06 in1.5 mm 0.11 in2.8 mm
07:40 AM 56.4°F13.6°C 55.6°F13.1°C 97% 1.0 mph SE1.6 kmh SE 4.0 mph6.4 kmh 30.12 in1020.0 mb 0.02 in0.5 mm 0.00 in0.0 mm 0.10 in2.5 mm
07:30 AM 56.2°F13.4°C 55.4°F13.0°C 97% 1.0 mph SE1.6 kmh SE 5.0 mph8.0 kmh 30.13 in1020.3 mb 0.02 in0.5 mm 0.00 in0.0 mm 0.09 in2.3 mm
07:20 AM 56.0°F13.3°C 55.2°F12.9°C 97% 1.0 mph SE1.6 kmh SE 5.0 mph8.0 kmh 30.13 in1020.3 mb 0.03 in0.8 mm 0.06 in1.5 mm 0.09 in2.3 mm
07:10 AM 55.7°F13.2°C 54.9°F12.7°C 97% 1.0 mph SSE1.6 kmh SSE 3.0 mph4.8 kmh 30.13 in1020.3 mb 0.02 in0.5 mm 0.00 in0.0 mm 0.08 in2.0 mm
07:00 AM 55.6°F13.1°C 54.8°F12.7°C 97% 1.0 mph SE1.6 kmh SE 3.0 mph4.8 kmh 30.13 in1020.3 mb 0.02 in0.5 mm 0.00 in0.0 mm 0.08 in2.0 mm
06:50 AM 55.4°F13.0°C 54.6°F12.6°C 97% 1.0 mph SE1.6 kmh SE 4.0 mph6.4 kmh 30.12 in1020.0 mb 0.03 in0.8 mm 0.00 in0.0 mm 0.08 in2.0 mm
06:40 AM 55.3°F12.9°C 54.5°F12.5°C 97% 1.0 mph E1.6 kmh E 4.0 mph6.4 kmh 30.13 in1020.3 mb 0.04 in1.0 mm 0.06 in1.5 mm 0.08 in2.0 mm
06:30 AM 55.3°F12.9°C 54.5°F12.5°C 97% 1.0 mph SE1.6 kmh SE 2.0 mph3.2 kmh 30.14 in1020.7 mb 0.03 in0.8 mm 0.00 in0.0 mm 0.07 in1.8 mm
06:20 AM 55.1°F12.8°C 54.3°F12.4°C 97% 1.0 mph SE1.6 kmh SE 3.0 mph4.8 kmh 30.14 in1020.7 mb 0.03 in0.8 mm 0.00 in0.0 mm 0.06 in1.5 mm
06:10 AM 55.1°F12.8°C 54.3°F12.4°C 97% 1.0 mph SE1.6 kmh SE 5.0 mph8.0 kmh 30.14 in1020.7 mb 0.06 in1.5 mm 0.00 in0.0 mm 0.06 in1.5 mm
06:00 AM 55.0°F12.8°C 54.2°F12.3°C 97% 1.0 mph S1.6 kmh S 3.0 mph4.8 kmh 30.14 in1020.7 mb 0.06 in1.5 mm 0.01 in0.3 mm 0.06 in1.5 mm
05:50 AM 54.9°F12.7°C 54.1°F12.3°C 97% 1.0 mph SSE1.6 kmh SSE 4.0 mph6.4 kmh 30.14 in1020.7 mb 0.05 in1.3 mm 0.06 in1.5 mm 0.05 in1.3 mm
05:40 AM 54.9°F12.7°C 53.8°F12.1°C 96% 1.0 mph SE1.6 kmh SE 4.0 mph6.4 kmh 30.14 in1020.7 mb 0.04 in1.0 mm 0.00 in0.0 mm 0.04 in1.0 mm
05:30 AM 54.9°F12.7°C 53.8°F12.1°C 96% 2.0 mph SE3.2 kmh SE 4.0 mph6.4 kmh 30.14 in1020.7 mb 0.04 in1.0 mm 0.06 in1.5 mm 0.04 in1.0 mm
05:20 AM 55.1°F12.8°C 53.7°F12.1°C 95% 1.0 mph SSE1.6 kmh SSE 4.0 mph6.4 kmh 30.14 in1020.7 mb 0.03 in0.8 mm 0.18 in4.6 mm 0.03 in0.8 mm
05:10 AM 55.1°F12.8°C 53.4°F11.9°C 94% 1.0 mph SSE1.6 kmh SSE 4.0 mph6.4 kmh 30.14 in1020.7 mb 0.00 in0.0 mm 0.00 in0.0 mm 0.00 in0.0 mm
05:00 AM 55.3°F12.9°C 53.6°F12.0°C 94% 1.0 mph SE1.6 kmh SE 3.0 mph4.8 kmh 30.14 in1020.7 mb 0.00 in0.0 mm 0.00 in0.0 mm 0.00 in0.0 mm
04:50 AM 55.4°F13.0°C 53.4°F11.9°C 93% 1.0 mph SE1.6 kmh SE 4.0 mph6.4 kmh 30.14 in1020.7 mb 0.00 in0.0 mm 0.00 in0.0 mm 0.00 in0.0 mm
04:40 AM 55.4°F13.0°C 53.7°F12.1°C 94% 1.0 mph SSE1.6 kmh SSE 4.0 mph6.4 kmh 30.15 in1021.0 mb 0.00 in0.0 mm 0.00 in0.0 mm 0.00 in0.0 mm
04:30 AM 55.3°F12.9°C 53.3°F11.8°C 93% Calm Calm 3.0 mph4.8 kmh 30.16 in1021.3 mb 0.00 in0.0 mm 0.00 in0.0 mm 0.00 in0.0 mm
04:20 AM 55.2°F12.9°C 53.5°F11.9°C 94% 1.0 mph ESE1.6 kmh ESE 2.0 mph3.2 kmh 30.15 in1021.0 mb 0.00 in0.0 mm 0.00 in0.0 mm 0.00 in0.0 mm
04:10 AM 55.1°F12.8°C 53.4°F11.9°C 94% 1.0 mph SSE1.6 kmh SSE 5.0 mph8.0 kmh 30.14 in1020.7 mb 0.00 in0.0 mm 0.00 in0.0 mm 0.00 in0.0 mm
04:00 AM 55.1°F12.8°C 53.4°F11.9°C 94% 1.0 mph SE1.6 kmh SE 5.0 mph8.0 kmh 30.15 in1021.0 mb 0.00 in0.0 mm 0.00 in0.0 mm 0.00 in0.0 mm
03:50 AM 55.2°F12.9°C 53.2°F11.8°C 93% 1.0 mph SSE1.6 kmh SSE 3.0 mph4.8 kmh 30.14 in1020.7 mb 0.00 in0.0 mm 0.00 in0.0 mm 0.00 in0.0 mm
03:40 AM 55.1°F12.8°C 53.1°F11.7°C 93% 1.0 mph SE1.6 kmh SE 3.0 mph4.8 kmh 30.15 in1021.0 mb 0.00 in0.0 mm 0.00 in0.0 mm 0.00 in0.0 mm
03:30 AM 55.1°F12.8°C 53.1°F11.7°C 93% 1.0 mph ESE1.6 kmh ESE 3.0 mph4.8 kmh 30.16 in1021.3 mb 0.00 in0.0 mm 0.00 in0.0 mm 0.00 in0.0 mm
03:20 AM 55.0°F12.8°C 53.0°F11.7°C 93% 1.0 mph SE1.6 kmh SE 3.0 mph4.8 kmh 30.15 in1021.0 mb 0.00 in0.0 mm 0.00 in0.0 mm 0.00 in0.0 mm
03:10 AM 54.9°F12.7°C 52.9°F11.6°C 93% 1.0 mph SE1.6 kmh SE 3.0 mph4.8 kmh 30.16 in1021.3 mb 0.00 in0.0 mm 0.00 in0.0 mm 0.00 in0.0 mm
03:00 AM 54.7°F12.6°C 52.7°F11.5°C 93% 1.0 mph SE1.6 kmh SE 3.0 mph4.8 kmh 30.16 in1021.3 mb 0.00 in0.0 mm 0.00 in0.0 mm 0.00 in0.0 mm
02:50 AM 54.7°F12.6°C 53.0°F11.7°C 94% 1.0 mph ESE1.6 kmh ESE 3.0 mph4.8 kmh 30.17 in1021.7 mb 0.00 in0.0 mm 0.00 in0.0 mm 0.00 in0.0 mm
02:40 AM 54.7°F12.6°C 53.0°F11.7°C 94% 1.0 mph ESE1.6 kmh ESE 3.0 mph4.8 kmh 30.17 in1021.7 mb 0.00 in0.0 mm 0.00 in0.0 mm 0.00 in0.0 mm
02:30 AM 54.6°F12.6°C 52.9°F11.6°C 94% 1.0 mph ESE1.6 kmh ESE 2.0 mph3.2 kmh 30.18 in1022.0 mb 0.00 in0.0 mm 0.00 in0.0 mm 0.00 in0.0 mm
02:20 AM 54.5°F12.5°C 52.5°F11.4°C 93% 1.0 mph E1.6 kmh E 2.0 mph3.2 kmh 30.18 in1022.0 mb 0.00 in0.0 mm 0.00 in0.0 mm 0.00 in0.0 mm
02:10 AM 54.6°F12.6°C 52.9°F11.6°C 94% Calm Calm 2.0 mph3.2 kmh 30.18 in1022.0 mb 0.00 in0.0 mm 0.00 in0.0 mm 0.00 in0.0 mm
02:00 AM 54.4°F12.4°C 52.7°F11.5°C 94% Calm Calm 2.0 mph3.2 kmh 30.18 in1022.0 mb 0.00 in0.0 mm 0.00 in0.0 mm 0.00 in0.0 mm
01:50 AM 54.4°F12.4°C 52.7°F11.5°C 94% 1.0 mph ESE1.6 kmh ESE 2.0 mph3.2 kmh 30.18 in1022.0 mb 0.00 in0.0 mm 0.00 in0.0 mm 0.00 in0.0 mm
01:40 AM 54.5°F12.5°C 52.8°F11.6°C 94% 1.0 mph SE1.6 kmh SE 2.0 mph3.2 kmh 30.18 in1022.0 mb 0.00 in0.0 mm 0.00 in0.0 mm 0.00 in0.0 mm
01:30 AM 54.4°F12.4°C 52.7°F11.5°C 94% 1.0 mph SE1.6 kmh SE 2.0 mph3.2 kmh 30.18 in1022.0 mb 0.00 in0.0 mm 0.00 in0.0 mm 0.00 in0.0 mm
01:20 AM 54.4°F12.4°C 53.0°F11.7°C 95% 1.0 mph SE1.6 kmh SE 2.0 mph3.2 kmh 30.18 in1022.0 mb 0.00 in0.0 mm 0.00 in0.0 mm 0.00 in0.0 mm
01:10 AM 54.4°F12.4°C 53.0°F11.7°C 95% Calm Calm 2.0 mph3.2 kmh 30.19 in1022.4 mb 0.00 in0.0 mm 0.00 in0.0 mm 0.00 in0.0 mm
01:00 AM 54.4°F12.4°C 52.7°F11.5°C 94% 1.0 mph SE1.6 kmh SE 3.0 mph4.8 kmh 30.19 in1022.4 mb 0.00 in0.0 mm 0.00 in0.0 mm 0.00 in0.0 mm
12:50 AM 54.4°F12.4°C 53.0°F11.7°C 95% 1.0 mph SE1.6 kmh SE 4.0 mph6.4 kmh 30.19 in1022.4 mb 0.00 in0.0 mm 0.00 in0.0 mm 0.00 in0.0 mm
12:40 AM 54.4°F12.4°C 53.0°F11.7°C 95% Calm Calm 2.0 mph3.2 kmh 30.19 in1022.4 mb 0.00 in0.0 mm 0.00 in0.0 mm 0.00 in0.0 mm
12:30 AM 54.3°F12.4°C 52.9°F11.6°C 95% Calm Calm 2.0 mph3.2 kmh 30.20 in1022.7 mb 0.00 in0.0 mm 0.00 in0.0 mm 0.00 in0.0 mm
12:20 AM 54.4°F12.4°C 52.7°F11.5°C 94% Calm Calm 2.0 mph3.2 kmh 30.20 in1022.7 mb 0.00 in0.0 mm 0.00 in0.0 mm 0.00 in0.0 mm
12:10 AM 54.4°F12.4°C 52.7°F11.5°C 94% Calm Calm 3.0 mph4.8 kmh 30.20 in1022.7 mb 0.00 in0.0 mm 0.00 in0.0 mm 0.00 in0.0 mm
12:00 AM 54.6°F12.6°C 52.9°F11.6°C 94% Calm Calm 4.0 mph6.4 kmh 30.21 in1023.0 mb 0.00 in0.0 mm 0.00 in0.0 mm 0.00 in0.0 mm